Fort Morgan, CO

9:00 PM MDT on May 22, 2015 (GMT -0600)
Fort Morgan | | Change Station
CLOSE
Current Station
Airport
Location: Fort Morgan,
Elevation: 4570 ft
Nearby Weather Stations
Active Advisory: Flood Warning

Elev 4570 ft 40.33 °N, 103.80 °W | Updated 5 minutes ago

Overcast
Overcast
50 °F
Feels Like 50 °F
N
13
Wind Variable Wind from ENE

Today
High -- | Low -- °F
--% Chance of Precip.
Yesterday
High -- | Low -- °F
Precip. -- in
5:33 AM 8:10 PM
Waxing Crescent, 26% visible
Pressure 30.03 in
Visibility 10.0 miles
Clouds Mostly Cloudy 300 ft
Mostly Cloudy 900 ft
Overcast 11000 ft
Dew Point 48 °F
Humidity 93%
Rainfall 0.00 in
Snow Depth Not available.
UV 0 out of 12
Pollen 3.80 out of 12
Air Quality Not available.
Flu Activity Sporadic
METAR KFMM 230255Z AUTO 06011KT 10SM BKN003 BKN009 OVC110 10/09 A3003 RMK AO2 T00970086

More Conditions Fewer Conditions

Pressure 30.03 in
Visibility 10.0 miles
Clouds Mostly Cloudy 300 ft
Mostly Cloudy 900 ft
Overcast 11000 ft
Dew Point 48 °F
Humidity 93%
Rainfall 0.00 in
Snow Depth Not available.
UV 0 out of 12
Pollen 3.80 out of 12
Air Quality Not available.
Flu Activity Sporadic
METAR KFMM 230255Z AUTO 06011KT 10SM BKN003 BKN009 OVC110 10/09 A3003 RMK AO2 T00970086

More Conditions Fewer Conditions

10-Day Weather Forecast

Almanac

Astronomy

May. 22, 2015 Rise Set
Actual Time
Civil Twilight
Nautical Twilight
Astronomical Twilight
Moon
Length of Visible Light
Length of Day
Tomorrow will be .
, % of the Moon is Illuminated

Today's Extremes

State Highs State Lows

Community

WunderPhotos

Upload Photos

1,823,374 photos uploaded!

WunderBlogs® & News

Nearby

Air Quality

  Air Quality AQ Index Pollutant
Not available.

Snow Depth

Station Depth Elevation

Earthquake Activity

City Distance Mag. Time & Date
Minimum magnitude displayed is 2.5.

Coastal Water Temperatures

Place Temperature

Stations

Nearby Weather Stations

Station Location Temp. Windchill Dew Point Humidity Wind Precip. Elev Updated Type
                   
Flood Warning
Statement as of 8:58 PM MDT on May 22, 2015

The Flood Warning continues for
the South Platte river near Weldona.
* Until late Saturday night... or until the stream falls below flood
stage.
* At 8:45 PM Friday the stage was 10.3 feet.
* Flood stage is 10.0 feet.
* Minor flooding is occurring and minor flooding is forecast.
* Forecast... the river will continue rising to near 10.3 feet by
early Saturday morning. The river will fall below flood stage
Saturday evening.
* Impact... at 10.0 feet... there is widespread lowland and Meadow
flooding. Water rises over the Railroad tracks near masters.
Irrigation works are impacted.
* Flood history... this crest compares to a previous crest of 10.3 feet
on may 10 1969.


Lat... Lon 4031 10426 4037 10402 4030 10386 4028 10388
4033 10399 4027 10428